createdAt,value
2018-03-04T00:02:53.473Z,27.40
2018-03-04T00:06:03.545Z,25.40
2018-03-04T00:09:14.118Z,25.30
2018-03-04T00:12:24.228Z,23.58
2018-03-04T00:15:34.071Z,25.77
2018-03-04T00:18:43.918Z,26.58
2018-03-04T00:21:54.414Z,27.77
2018-03-04T00:25:04.342Z,24.77
2018-03-04T00:28:14.249Z,25.65
2018-03-04T00:31:27.048Z,26.95
2018-03-04T00:34:38.196Z,28.52
2018-03-04T00:37:49.239Z,32.15
2018-03-04T00:41:00.003Z,30.45
2018-03-04T00:44:10.053Z,29.27
2018-03-04T00:47:19.845Z,26.55
2018-03-04T00:50:30.493Z,31.33
2018-03-04T00:53:40.625Z,23.12
2018-03-04T00:56:50.608Z,26.33
2018-03-04T01:00:01.373Z,23.15
2018-03-04T01:03:12.617Z,23.90
2018-03-04T01:06:22.702Z,25.35
2018-03-04T01:09:33.768Z,39.25
2018-03-04T01:12:43.772Z,20.50
2018-03-04T01:15:54.497Z,25.65
2018-03-04T01:19:04.666Z,29.60
2018-03-04T01:22:15.402Z,29.67
2018-03-04T01:25:25.326Z,24.73
2018-03-04T01:28:35.244Z,27.48
2018-03-04T01:31:45.800Z,28.12
2018-03-04T01:34:55.690Z,30.92
2018-03-04T01:38:05.610Z,25.73
2018-03-04T01:41:16.245Z,21.50
2018-03-04T01:44:25.940Z,24.87
2018-03-04T01:47:36.511Z,27.73
2018-03-04T01:50:46.350Z,26.17
2018-03-04T01:53:56.391Z,28.08
2018-03-04T01:57:06.480Z,22.40
2018-03-04T02:00:16.628Z,25.02
2018-03-04T02:03:26.629Z,25.62
2018-03-04T02:06:36.503Z,24.65
2018-03-04T02:09:47.150Z,25.20
2018-03-04T02:12:57.226Z,26.95
2018-03-04T02:16:07.170Z,23.83
2018-03-04T02:19:17.665Z,27.60
2018-03-04T02:22:27.783Z,29.30
2018-03-04T02:25:37.760Z,24.48
2018-03-04T02:28:47.637Z,23.98
2018-03-04T02:31:58.453Z,23.05
2018-03-04T02:35:08.557Z,22.35
2018-03-04T02:38:19.922Z,21.37
2018-03-04T02:41:30.164Z,21.80
2018-03-04T02:44:40.956Z,23.45
2018-03-04T02:47:50.892Z,23.02
2018-03-04T02:51:01.682Z,25.65
2018-03-04T02:54:12.238Z,20.10
2018-03-04T02:57:23.189Z,19.92
2018-03-04T03:00:33.342Z,28.15
2018-03-04T03:03:43.263Z,22.95
2018-03-04T03:06:53.896Z,28.75
2018-03-04T03:10:04.302Z,23.15
2018-03-04T03:13:14.563Z,25.25
2018-03-04T03:16:24.438Z,25.55
2018-03-04T03:19:34.358Z,24.17
2018-03-04T03:22:45.131Z,22.98
2018-03-04T03:25:55.172Z,23.17
2018-03-04T03:29:05.033Z,24.40
2018-03-04T03:32:15.235Z,26.62
2018-03-04T03:35:25.074Z,22.77
2018-03-04T03:38:34.988Z,23.45
2018-03-04T03:41:44.793Z,21.92
2018-03-04T03:44:54.673Z,31.17
2018-03-04T03:48:05.285Z,27.45
2018-03-04T03:51:15.459Z,25.00
2018-03-04T03:54:25.517Z,27.65
2018-03-04T03:57:36.361Z,24.33
2018-03-04T04:00:46.303Z,29.73
2018-03-04T04:03:56.297Z,22.85
2018-03-04T04:07:06.108Z,26.87
2018-03-04T04:10:16.008Z,24.42
2018-03-04T04:13:26.748Z,27.10
2018-03-04T04:16:36.960Z,25.48
2018-03-04T04:19:47.115Z,25.25
2018-03-04T04:22:57.425Z,23.00
2018-03-04T04:26:07.259Z,27.40
2018-03-04T04:29:17.233Z,27.33
2018-03-04T04:32:27.130Z,35.65
2018-03-04T04:35:37.050Z,22.58
2018-03-04T04:38:47.228Z,24.75
2018-03-04T04:41:57.537Z,24.45
2018-03-04T04:45:07.704Z,25.05
2018-03-04T04:48:17.799Z,26.35
2018-03-04T04:51:27.833Z,25.10
2018-03-04T04:54:38.557Z,29.23
2018-03-04T04:57:49.279Z,25.90
2018-03-04T05:00:59.707Z,30.85
2018-03-04T05:04:09.713Z,27.40
2018-03-04T05:07:19.815Z,25.65
2018-03-04T05:10:29.731Z,27.33
2018-03-04T05:13:39.664Z,20.27
2018-03-04T05:16:50.683Z,26.02
2018-03-04T05:20:00.906Z,29.60
2018-03-04T05:23:10.946Z,25.88
2018-03-04T05:26:21.687Z,31.30
2018-03-04T05:29:31.656Z,27.15
2018-03-04T05:32:41.785Z,31.80
2018-03-04T05:35:52.458Z,27.13
2018-03-04T05:39:02.423Z,27.67
2018-03-04T05:42:12.298Z,24.00
2018-03-04T05:45:22.381Z,28.70
2018-03-04T05:48:33.248Z,26.23
2018-03-04T05:51:45.994Z,31.83
2018-03-04T05:54:56.085Z,21.75
2018-03-04T05:58:06.162Z,30.02
2018-03-04T06:01:15.998Z,25.55
2018-03-04T06:04:26.562Z,32.38
2018-03-04T06:07:36.857Z,24.90
2018-03-04T06:10:46.793Z,49.42
2018-03-04T06:13:56.692Z,34.35
2018-03-04T06:17:07.163Z,30.33
2018-03-04T06:20:17.346Z,26.52
2018-03-04T06:23:27.211Z,35.55
2018-03-04T06:26:37.175Z,25.80
2018-03-04T06:29:47.121Z,26.02
2018-03-04T06:32:57.167Z,30.85
2018-03-04T06:36:07.230Z,32.47
2018-03-04T06:39:17.966Z,30.25
2018-03-04T06:42:27.940Z,34.80
2018-03-04T06:45:38.604Z,32.05
2018-03-04T06:48:48.534Z,24.02
2018-03-04T06:51:59.249Z,37.83
2018-03-04T06:55:10.337Z,36.97
2018-03-04T06:58:20.983Z,32.05
2018-03-04T07:01:31.268Z,30.50
2018-03-04T07:04:41.979Z,34.88
2018-03-04T07:07:51.936Z,31.30
2018-03-04T07:11:03.315Z,33.65
2018-03-04T07:14:13.956Z,33.10
2018-03-04T07:17:24.653Z,30.10
2018-03-04T07:20:35.540Z,29.73
2018-03-04T07:23:45.967Z,31.25
2018-03-04T07:26:56.668Z,28.27
2018-03-04T07:30:06.866Z,33.38
2018-03-04T07:33:17.614Z,32.05
2018-03-04T07:36:27.807Z,34.70
2018-03-04T07:39:38.853Z,40.03
2018-03-04T07:42:49.232Z,33.65
2018-03-04T07:45:59.739Z,26.80
2018-03-04T07:49:09.734Z,26.70
2018-03-04T07:52:20.665Z,40.45
2018-03-04T07:55:31.440Z,28.60
2018-03-04T07:58:42.161Z,40.45
2018-03-04T08:01:52.705Z,22.67
2018-03-04T08:05:03.488Z,34.05
2018-03-04T08:08:13.384Z,36.55
2018-03-04T08:11:24.910Z,32.00
2018-03-04T08:14:34.977Z,27.17
2018-03-04T08:17:44.924Z,30.95
2018-03-04T08:20:54.872Z,26.75
2018-03-04T08:24:05.032Z,32.53
2018-03-04T08:27:26.892Z,27.60
2018-03-04T08:30:37.300Z,37.97
2018-03-04T08:33:47.424Z,30.45
2018-03-04T08:36:58.060Z,32.05
2018-03-04T08:40:10.655Z,33.88
2018-03-04T08:43:21.300Z,39.20
2018-03-04T08:46:31.444Z,32.63
2018-03-04T08:49:41.258Z,35.65
2018-03-04T08:52:52.017Z,34.22
2018-03-04T08:56:02.710Z,32.63
2018-03-04T08:59:12.679Z,34.03
2018-03-04T09:02:22.556Z,29.95
2018-03-04T09:05:32.556Z,34.10
2018-03-04T09:08:43.275Z,30.60
2018-03-04T09:11:53.066Z,38.65
2018-03-04T09:15:03.902Z,34.65
2018-03-04T09:18:14.458Z,29.27
2018-03-04T09:21:24.405Z,39.10
2018-03-04T09:24:34.520Z,36.80
2018-03-04T09:27:45.056Z,37.08
2018-03-04T09:30:55.770Z,37.60
2018-03-04T09:34:06.340Z,34.53
2018-03-04T09:37:17.029Z,34.67
2018-03-04T09:40:27.683Z,33.55
2018-03-04T09:43:38.578Z,37.45
2018-03-04T09:46:49.922Z,39.70
2018-03-04T09:50:00.933Z,35.40
2018-03-04T09:53:11.701Z,32.33
2018-03-04T09:56:21.800Z,36.88
2018-03-04T09:59:32.366Z,26.73
2018-03-04T10:02:43.071Z,41.28
2018-03-04T10:05:53.130Z,43.50
2018-03-04T10:09:03.654Z,35.67
2018-03-04T10:12:14.200Z,34.25
2018-03-04T10:15:24.869Z,32.83
2018-03-04T10:18:35.686Z,27.70
2018-03-04T10:21:45.552Z,30.02
2018-03-04T10:24:55.413Z,25.48
2018-03-04T10:28:06.769Z,28.38
2018-03-04T10:31:17.037Z,30.45
2018-03-04T10:34:27.896Z,33.58
2018-03-04T10:37:37.978Z,26.65
2018-03-04T10:40:49.503Z,34.35
2018-03-04T10:44:00.356Z,32.10
2018-03-04T10:47:11.200Z,31.98
2018-03-04T10:50:21.200Z,32.33
2018-03-04T10:53:31.345Z,32.55
2018-03-04T10:56:41.256Z,26.15
2018-03-04T10:59:51.761Z,25.30
2018-03-04T11:03:02.504Z,31.83
2018-03-04T11:06:12.749Z,31.42
2018-03-04T11:09:22.736Z,24.55
2018-03-04T11:12:33.283Z,33.63
2018-03-04T11:15:43.434Z,29.87
2018-03-04T11:18:53.946Z,30.83
2018-03-04T11:22:04.753Z,26.00
2018-03-04T11:25:15.834Z,29.17
2018-03-04T11:28:26.642Z,28.62
2018-03-04T11:31:36.954Z,23.83
2018-03-04T11:34:47.412Z,27.10
2018-03-04T11:37:57.452Z,25.85
2018-03-04T11:41:08.194Z,24.20
2018-03-04T11:44:18.086Z,22.00
2018-03-04T11:47:28.973Z,26.30
2018-03-04T11:50:40.866Z,17.12
2018-03-04T11:53:51.305Z,16.62
2018-03-04T11:57:01.649Z,25.12
2018-03-04T12:00:12.344Z,26.60
2018-03-04T12:03:23.336Z,27.25
2018-03-04T12:06:33.164Z,22.80
2018-03-04T12:09:43.152Z,24.35
2018-03-04T12:12:53.380Z,26.05
2018-03-04T12:16:03.416Z,23.10
2018-03-04T12:19:13.528Z,25.90
2018-03-04T12:22:23.835Z,23.30
2018-03-04T12:25:35.099Z,15.77
2018-03-04T12:28:45.855Z,25.17
2018-03-04T12:31:56.500Z,21.90
2018-03-04T12:35:07.586Z,29.85
2018-03-04T12:38:18.656Z,24.42
2018-03-04T12:41:29.481Z,23.73
2018-03-04T12:44:39.487Z,21.90
2018-03-04T12:47:49.477Z,17.67
2018-03-04T12:50:59.530Z,20.50
2018-03-04T12:54:09.471Z,20.50
2018-03-04T12:57:19.291Z,21.05
2018-03-04T13:00:29.645Z,17.12
2018-03-04T13:03:39.658Z,22.33
2018-03-04T13:06:50.217Z,20.35
2018-03-04T13:10:01.191Z,23.15
2018-03-04T13:13:11.049Z,16.95
2018-03-04T13:16:21.053Z,22.08
2018-03-04T13:19:31.837Z,21.70
2018-03-04T13:22:41.945Z,22.48
2018-03-04T13:25:51.953Z,21.00
2018-03-04T13:29:01.898Z,23.27
2018-03-04T13:32:12.057Z,23.00
2018-03-04T13:35:22.638Z,25.02
2018-03-04T13:38:32.909Z,24.25
2018-03-04T13:41:43.007Z,24.25
2018-03-04T13:44:53.704Z,26.75
2018-03-04T13:48:03.844Z,25.33
2018-03-04T13:51:14.005Z,23.83
2018-03-04T13:54:23.775Z,23.33
2018-03-04T13:57:35.229Z,21.52
2018-03-04T14:00:45.819Z,22.02
2018-03-04T14:03:55.776Z,20.25
2018-03-04T14:07:06.356Z,22.80
2018-03-04T14:10:16.813Z,27.85
2018-03-04T14:13:28.369Z,26.75
2018-03-04T14:16:39.016Z,24.95
2018-03-04T14:19:50.278Z,21.37
2018-03-04T14:23:00.463Z,25.02
2018-03-04T14:26:11.776Z,24.73
2018-03-04T14:29:21.608Z,20.92
2018-03-04T14:32:31.892Z,17.73
2018-03-04T14:35:43.178Z,19.60
2018-03-04T14:38:53.944Z,15.95
2018-03-04T14:42:04.040Z,10.75
2018-03-04T14:45:15.168Z,14.00
2018-03-04T14:48:26.069Z,10.15
2018-03-04T14:51:35.992Z,12.40
2018-03-04T14:54:46.263Z,11.10
2018-03-04T14:57:56.939Z,10.23
2018-03-04T15:01:06.875Z,12.27
2018-03-04T15:04:17.036Z,13.77
2018-03-04T15:07:27.118Z,11.45
2018-03-04T15:10:37.007Z,14.15
2018-03-04T15:13:46.993Z,14.90
2018-03-04T15:16:57.952Z,15.75
2018-03-04T15:20:12.172Z,16.58
2018-03-04T15:23:22.209Z,17.20
2018-03-04T15:26:33.323Z,15.02
2018-03-04T15:29:43.753Z,13.30
2018-03-04T15:32:54.010Z,15.07
2018-03-04T15:36:04.167Z,20.05
2018-03-04T15:39:15.035Z,17.62
2018-03-04T15:42:25.797Z,16.80
2018-03-04T15:45:35.931Z,17.35
2018-03-04T15:48:45.862Z,21.00
2018-03-04T15:51:56.553Z,17.33
2018-03-04T15:55:06.662Z,16.90
2018-03-04T15:58:17.624Z,19.00
2018-03-04T16:01:27.556Z,22.83
2018-03-04T16:04:39.144Z,17.67
2018-03-04T16:07:49.321Z,19.55
2018-03-04T16:10:59.553Z,17.15
2018-03-04T16:14:10.417Z,19.10
2018-03-04T16:17:20.498Z,19.02
2018-03-04T16:20:30.674Z,15.15
2018-03-04T16:23:40.721Z,19.42
2018-03-04T16:26:51.610Z,18.83
2018-03-04T16:30:01.835Z,22.87
2018-03-04T16:33:11.820Z,19.65
2018-03-04T16:36:21.780Z,20.20
2018-03-04T16:39:32.693Z,19.52
2018-03-04T16:42:43.707Z,18.48
2018-03-04T16:45:54.538Z,18.58
2018-03-04T16:49:04.355Z,17.35
2018-03-04T16:52:15.090Z,19.92
2018-03-04T16:55:25.203Z,22.62
2018-03-04T16:58:36.095Z,22.30
2018-03-04T17:01:47.244Z,18.25
2018-03-04T17:04:57.877Z,17.05
2018-03-04T17:08:08.515Z,17.45
2018-03-04T17:11:19.827Z,20.02
2018-03-04T17:14:30.196Z,21.70
2018-03-04T17:17:40.101Z,19.75
2018-03-04T17:20:50.098Z,22.65
2018-03-04T17:24:00.911Z,24.73
2018-03-04T17:27:11.177Z,20.83
2018-03-04T17:30:21.032Z,20.12
2018-03-04T17:33:31.943Z,22.80
2018-03-04T17:36:42.982Z,22.13
2018-03-04T17:39:53.516Z,24.52
2018-03-04T17:43:03.611Z,19.62
2018-03-04T17:46:13.261Z,21.05
2018-03-04T17:49:23.543Z,22.05
2018-03-04T17:52:33.848Z,24.98
2018-03-04T17:55:45.693Z,20.12
2018-03-04T17:58:59.917Z,18.35
2018-03-04T18:02:10.340Z,27.23
2018-03-04T18:05:20.821Z,22.05
2018-03-04T18:08:34.002Z,25.50
2018-03-04T18:11:44.642Z,23.40
2018-03-04T18:14:55.022Z,27.40
2018-03-04T18:18:05.967Z,22.30
2018-03-04T18:21:16.027Z,28.87
2018-03-04T18:24:25.784Z,23.02
2018-03-04T18:27:35.717Z,19.92
2018-03-04T18:30:46.365Z,26.52
2018-03-04T18:33:56.259Z,24.83
2018-03-04T18:37:06.193Z,20.50
2018-03-04T18:40:16.007Z,18.30
2018-03-04T18:43:26.222Z,19.75
2018-03-04T18:46:36.988Z,24.12
2018-03-04T18:49:47.575Z,23.45
2018-03-04T18:52:57.771Z,24.12
2018-03-04T18:56:08.134Z,19.83
2018-03-04T18:59:18.463Z,25.85
2018-03-04T19:02:29.229Z,21.27
2018-03-04T19:05:39.571Z,23.60
2018-03-04T19:08:49.347Z,23.10
2018-03-04T19:11:59.254Z,22.92
2018-03-04T19:15:10.308Z,24.05
2018-03-04T19:18:20.086Z,20.35
2018-03-04T19:21:29.902Z,21.42
2018-03-04T19:24:39.885Z,21.65
2018-03-04T19:27:50.726Z,20.20
2018-03-04T19:31:00.368Z,23.38
2018-03-04T19:34:10.291Z,21.00
2018-03-04T19:37:20.162Z,21.10
2018-03-04T19:40:31.966Z,19.48
2018-03-04T19:43:42.562Z,21.02
2018-03-04T19:46:52.549Z,20.02
2018-03-04T19:50:03.583Z,19.83
2018-03-04T19:53:14.896Z,18.98
2018-03-04T19:56:25.350Z,21.17
2018-03-04T19:59:35.419Z,21.50
2018-03-04T20:02:47.032Z,22.75
2018-03-04T20:05:57.897Z,22.98
2018-03-04T20:09:07.761Z,20.88
2018-03-04T20:12:17.965Z,23.75
2018-03-04T20:15:28.135Z,22.30
2018-03-04T20:18:38.943Z,25.10
2018-03-04T20:21:49.124Z,25.10
2018-03-04T20:24:59.615Z,22.73
2018-03-04T20:28:10.311Z,22.58
2018-03-04T20:31:25.770Z,22.37
2018-03-04T20:34:35.937Z,24.25
2018-03-04T20:37:45.742Z,19.37
2018-03-04T20:40:56.074Z,23.87
2018-03-04T20:44:06.516Z,24.52
2018-03-04T20:47:17.391Z,22.25
2018-03-04T20:50:27.672Z,22.20
2018-03-04T20:53:38.447Z,22.23
2018-03-04T20:56:48.270Z,24.23
2018-03-04T20:59:59.056Z,23.62
2018-03-04T21:03:09.193Z,19.08
2018-03-04T21:06:19.168Z,16.75
2018-03-04T21:09:29.977Z,19.85
2018-03-04T21:12:40.531Z,25.33
2018-03-04T21:15:51.342Z,20.17
2018-03-04T21:19:01.764Z,20.65
2018-03-04T21:22:11.857Z,20.60
2018-03-04T21:25:22.058Z,20.37
2018-03-04T21:28:31.908Z,21.80
2018-03-04T21:31:42.580Z,23.70
2018-03-04T21:34:52.553Z,25.45
2018-03-04T21:38:02.616Z,21.50
2018-03-04T21:41:16.098Z,20.10
2018-03-04T21:44:25.898Z,22.95
2018-03-04T21:47:36.088Z,37.65
2018-03-04T21:50:47.557Z,18.27
2018-03-04T21:53:57.620Z,20.00
2018-03-04T21:57:07.573Z,15.05
2018-03-04T22:00:18.223Z,20.17
2018-03-04T22:03:28.070Z,15.02
2018-03-04T22:06:37.980Z,23.90
2018-03-04T22:09:47.972Z,22.83
2018-03-04T22:12:57.872Z,21.48
2018-03-04T22:16:07.662Z,22.52
2018-03-04T22:19:18.396Z,23.98
2018-03-04T22:22:29.892Z,23.30
2018-03-04T22:25:40.098Z,22.60
2018-03-04T22:28:50.038Z,18.87
2018-03-04T22:32:00.483Z,24.65
2018-03-04T22:35:10.483Z,22.65
2018-03-04T22:38:20.484Z,24.92
2018-03-04T22:41:30.502Z,25.62
2018-03-04T22:44:40.669Z,23.15
2018-03-04T22:47:51.976Z,24.00
2018-03-04T22:51:02.051Z,24.95
2018-03-04T22:54:11.988Z,23.42
2018-03-04T22:57:21.774Z,27.02
2018-03-04T23:00:31.657Z,26.65
2018-03-04T23:03:42.506Z,23.90
2018-03-04T23:06:53.010Z,23.33
2018-03-04T23:10:03.243Z,25.15
2018-03-04T23:13:14.043Z,22.02
2018-03-04T23:16:23.853Z,24.70
2018-03-04T23:19:33.679Z,26.05
2018-03-04T23:22:44.684Z,27.95
2018-03-04T23:25:54.812Z,26.05
2018-03-04T23:29:05.445Z,20.95
2018-03-04T23:32:16.389Z,23.87
2018-03-04T23:35:26.540Z,21.48
2018-03-04T23:38:36.715Z,20.58
2018-03-04T23:41:46.590Z,22.15
2018-03-04T23:44:57.089Z,25.67
2018-03-04T23:48:06.929Z,28.10
2018-03-04T23:51:17.335Z,20.17
2018-03-04T23:54:28.830Z,23.58
2018-03-04T23:57:39.372Z,19.00
